Latest Weather Observations for Mount Read

IDT60801

Issued at 6:35 am EST Monday 21 April 2014 (issued every 30 minutes, with the page automatically refreshed every 10 minutes)

About weather observations | Map of weather stations | Latest weather observations for TAS | Other Formats
Station Details ID: 097085 Name: MOUNT READ Lat: -41.84 Lon: 145.54 Height: 1119.5 m
Data from the previous 72 hours. | See also: Recent months at Mount Read
Date/Time
EST
Temp
°C
App
Temp
°C
Dew
Point
Rel
Hum
%
Delta-T
°C
Wind Press
QNH
hPa
Press
MSL
hPa
Rain
since 9 am
mm
Dir
 
Spd
km/h
Gust
km/h
Spd
kts
Gust
kts
21/06:30am -0.3 -3.1 -0.4 99 0.0 E 4 6 2 3 1015.1 - 18.0
21/06:00am -0.1 -3.3 -0.2 99 0.0 E 6 7 3 4 1015.0 1015.1 18.0
21/05:30am -0.1 -3.8 -0.2 99 0.0 SSE 9 11 5 6 1014.7 - 18.0
21/05:00am -0.3 -4.4 -0.4 99 0.0 SE 11 13 6 7 1014.8 1014.9 18.0
21/04:30am -0.1 -4.6 -0.2 99 0.0 SSE 13 17 7 9 1014.5 - 18.0
21/04:00am -0.3 -5.2 -0.4 99 0.0 SSE 15 17 8 9 1014.3 1014.4 18.0
21/03:30am -0.3 -5.2 -0.4 99 0.0 SSE 15 17 8 9 1014.4 - 18.0
21/03:00am -0.1 -5.0 -0.2 99 0.0 S 15 17 8 9 1014.7 1014.8 18.0
21/02:30am 0.0 -6.2 -0.1 99 0.0 S 22 26 12 14 1014.3 - 18.0
21/02:00am -0.1 -5.7 -0.2 99 0.0 S 19 22 10 12 1014.5 1014.7 18.0
21/01:30am 0.0 -5.2 -0.1 99 0.0 S 17 19 9 10 1014.4 - 18.0
21/01:00am 0.5 -4.3 0.4 99 0.0 SSW 15 17 8 9 1014.5 1014.7 18.0
21/12:30am 1.0 -4.6 0.9 99 0.0 S 20 26 11 14 1014.3 - 17.8
21/12:00am 1.3 -4.3 1.2 99 0.0 S 20 26 11 14 1014.2 1014.3 17.8
 
Date/Time
EST
Temp
°C
App
Temp
°C
Dew
Point
Rel
Hum
%
Delta-T
°C
Wind Press
QNH
hPa
Press
MSL
hPa
Rain
since 9 am
mm
Dir
 
Spd
km/h
Gust
km/h
Spd
kts
Gust
kts
20/11:30pm 1.4 -3.6 1.3 99 0.0 S 17 22 9 12 1014.1 - 17.8
20/11:00pm 1.6 -4.7 1.5 99 0.0 SSW 24 32 13 17 1014.1 1014.2 17.8
20/10:30pm 1.6 -4.0 1.5 99 0.0 SSW 20 26 11 14 1014.2 - 17.8
20/10:00pm 1.5 -3.9 1.4 99 0.0 SSW 19 22 10 12 1014.0 1014.1 17.8
20/09:30pm 1.7 -4.6 1.6 99 0.0 SSW 24 32 13 17 1013.9 - 17.8
20/09:00pm 1.9 -5.1 1.8 99 0.0 SSW 28 37 15 20 1013.5 1013.6 17.8
20/08:30pm 2.1 -5.3 2.0 99 0.0 SSW 30 39 16 21 1013.2 - 17.6
20/08:00pm 2.1 -4.5 2.0 99 0.0 SSW 26 37 14 20 1013.1 1013.2 17.6
20/07:30pm 2.1 -3.2 2.0 99 0.0 SSW 19 28 10 15 1013.0 - 17.6
20/07:00pm 2.5 -3.3 2.4 99 0.0 SW 22 30 12 16 1013.0 1013.1 17.6
20/06:30pm 2.6 -5.1 2.5 99 0.0 SW 32 44 17 24 1012.5 - 17.6
20/06:00pm 3.4 -3.0 3.3 99 0.0 SW 26 37 14 20 1012.2 1012.3 17.6
20/05:30pm 3.3 -4.8 3.2 99 0.0 SW 35 46 19 25 1011.9 - 17.4
20/05:00pm 4.0 -4.7 3.9 99 0.0 SW 39 52 21 28 1011.3 1011.4 16.8
20/04:30pm 4.2 -4.5 4.1 99 0.0 SW 39 52 21 28 1011.2 - 16.4
20/04:00pm 4.5 -4.9 4.4 99 0.0 SW 43 54 23 29 1011.0 1011.0 16.0
20/03:38pm 5.5 -1.2 5.4 99 0.0 SW 30 52 16 28 1010.8 - 15.2
20/03:30pm 5.6 -1.7 5.5 99 0.0 SW 33 43 18 23 1010.8 - 15.0
20/03:00pm 5.7 -1.6 5.6 99 0.0 WSW 33 52 18 28 1010.4 1010.4 13.8
20/02:58pm 6.0 -0.6 5.9 99 0.0 WSW 30 50 16 27 1010.5 - 13.6
20/02:54pm 6.2 0.0 6.1 99 0.0 W 28 39 15 21 1010.4 - 13.2
20/02:30pm 6.2 -1.7 6.1 99 0.0 WNW 37 59 20 32 1010.0 - 11.6
20/02:00pm 6.1 -2.6 6.0 99 0.0 WNW 41 67 22 36 1009.5 1009.5 9.0
20/01:30pm 6.1 -1.5 6.0 99 0.0 NW 35 56 19 30 1009.6 - 7.6
20/01:03pm 6.0 -1.2 5.9 99 0.0 WNW 33 57 18 31 1010.0 - 7.2
20/01:00pm 5.9 -1.7 5.8 99 0.0 WNW 35 52 19 28 1010.2 1010.2 6.8
20/12:30pm 5.8 -2.2 5.7 99 0.0 WNW 37 63 20 34 1010.3 - 5.8
20/12:07pm 5.5 -1.8 5.4 99 0.0 NW 33 57 18 31 1010.6 - 4.0
20/12:00pm 5.5 -4.7 5.4 99 0.0 WNW 48 61 26 33 1010.6 1010.7 4.0
20/11:30am 5.3 -1.1 5.2 99 0.0 WNW 28 50 15 27 1011.0 - 2.4
20/11:15am 5.2 -2.2 5.1 99 0.0 NW 33 56 18 30 1011.1 - 2.2
20/11:00am 5.0 0.1 4.9 99 0.0 NW 20 43 11 23 1011.1 1011.1 2.0
20/10:49am 4.8 -2.7 4.7 99 0.0 NW 33 54 18 29 1011.1 - 1.8
20/10:30am 4.7 -0.3 4.6 99 0.0 NNW 20 43 11 23 1011.1 - 1.2
20/10:01am 4.5 -2.4 4.4 99 0.0 NW 30 48 16 26 1011.2 - 0.8
20/10:00am 4.6 -2.7 4.5 99 0.0 WNW 32 48 17 26 1011.2 1011.2 0.8
20/09:50am 4.4 -2.2 4.3 99 0.0 NW 28 50 15 27 1011.1 - 0.8
20/09:30am 4.2 -1.3 4.1 99 0.0 NW 22 43 12 23 1011.3 - 0.0
20/09:00am 3.8 -1.4 3.7 99 0.0 NNW 20 39 11 21 1011.3 1011.4 6.6
20/08:30am 3.8 -1.4 3.7 99 0.0 NNW 20 39 11 21 1011.4 - 6.6
20/08:00am 3.5 -1.7 3.4 99 0.0 NNW 20 41 11 22 1011.4 1011.5 6.4
20/07:30am 3.4 -2.2 3.3 99 0.0 NW 22 41 12 22 1011.2 - 6.4
20/07:00am 3.1 -1.6 3.0 99 0.0 NNW 17 32 9 17 1011.1 1011.1 5.4
20/06:30am 3.1 -2.6 3.0 99 0.0 NW 22 35 12 19 1011.0 - 5.0
20/06:00am 2.7 -2.1 2.6 99 0.0 NW 17 33 9 18 1011.0 1011.0 5.0
20/05:30am 2.4 -1.7 2.3 99 0.0 NNW 13 19 7 10 1011.1 - 4.6
20/05:00am 2.6 -2.6 2.5 99 0.0 NNW 19 32 10 17 1010.9 1010.9 3.4
20/04:30am 2.5 -2.7 2.4 99 0.0 NW 19 28 10 15 1010.9 - 3.4
20/04:00am 2.3 -2.2 2.2 99 0.0 NNW 15 19 8 10 1011.0 1011.0 3.2
20/03:30am 2.4 -2.8 2.3 99 0.0 NW 19 28 10 15 1011.0 - 2.6
20/03:00am 2.3 -3.1 2.2 99 0.0 NW 20 33 11 18 1011.2 1011.2 2.4
20/02:30am 2.0 -4.2 1.9 99 0.0 NW 24 35 13 19 1011.4 - 2.0
20/02:00am 1.8 -4.5 1.7 99 0.0 NW 24 32 13 17 1011.8 1011.8 2.0
20/01:30am 1.8 -3.7 1.7 99 0.0 WNW 20 30 11 16 1012.2 - 2.0
20/01:00am 1.8 -4.1 1.7 99 0.0 WNW 22 32 12 17 1012.3 1012.4 2.0
20/12:30am 1.7 -2.1 1.6 99 0.0 NW 11 17 6 9 1012.5 - 1.6
20/12:00am 1.8 -3.1 1.7 99 0.0 WNW 17 30 9 16 1012.7 1012.7 1.6
 
Date/Time
EST
Temp
°C
App
Temp
°C
Dew
Point
Rel
Hum
%
Delta-T
°C
Wind Press
QNH
hPa
Press
MSL
hPa
Rain
since 9 am
mm
Dir
 
Spd
km/h
Gust
km/h
Spd
kts
Gust
kts
19/11:30pm 1.5 -2.4 1.4 99 0.0 NNW 11 15 6 8 1013.0 - 1.4
19/11:00pm 1.4 -2.9 1.3 99 0.0 NW 13 19 7 10 1013.1 1013.2 1.4
19/10:30pm 1.2 -3.5 1.1 99 0.0 WNW 15 20 8 11 1013.4 - 1.4
19/10:00pm 1.3 -3.4 1.2 99 0.0 WNW 15 20 8 11 1013.8 1013.9 1.4
19/09:30pm 1.6 -1.3 1.5 99 0.0 NNW 6 11 3 6 1014.1 - 1.4
19/09:00pm 1.5 -1.4 1.4 99 0.0 NW 6 11 3 6 1014.3 1014.4 1.2
19/08:30pm 1.4 -3.2 1.3 99 0.0 W 15 20 8 11 1014.3 - 1.2
19/08:00pm 1.4 -2.9 1.3 99 0.0 SW 13 17 7 9 1014.4 1014.6 1.0
19/07:30pm 1.4 -3.2 1.3 99 0.0 WSW 15 20 8 11 1014.4 - 1.0
19/07:00pm 1.3 -4.1 1.2 99 0.0 WSW 19 22 10 12 1014.4 1014.6 1.0
19/06:30pm 1.3 -4.1 1.2 99 0.0 WSW 19 26 10 14 1014.3 - 1.0
19/06:00pm 1.3 -3.4 1.2 99 0.0 SW 15 20 8 11 1014.3 1014.4 1.0
19/05:30pm 1.2 -3.8 1.1 99 0.0 SW 17 20 9 11 1014.4 - 1.0
19/05:00pm 1.7 -3.3 1.6 99 0.0 SW 17 22 9 12 1014.4 1014.6 1.0
19/04:30pm 2.0 -3.9 1.9 99 0.0 SW 22 30 12 16 1014.4 - 1.0
19/04:00pm 2.3 -1.8 2.2 99 0.0 SW 13 22 7 12 1014.7 1014.8 1.0
19/03:30pm 2.0 -3.5 1.9 99 0.0 SW 20 28 11 15 1014.7 - 1.0
19/03:00pm 2.3 -2.2 2.2 99 0.0 SW 15 22 8 12 1014.7 1014.8 1.0
19/02:30pm 2.4 -3.0 2.3 99 0.0 SW 20 30 11 16 1014.7 - 0.8
19/02:00pm 2.6 -2.6 2.5 99 0.0 WSW 19 26 10 14 1014.8 1014.9 0.8
19/01:30pm 2.4 -3.8 2.3 99 0.0 SW 24 35 13 19 1014.8 - 0.8
19/01:00pm 2.4 -3.8 2.3 99 0.0 SW 24 33 13 18 1014.9 1015.0 0.6
19/12:30pm 2.6 -3.2 2.5 99 0.0 SSW 22 33 12 18 1015.2 - 0.2
19/12:00pm 2.3 -3.1 2.2 99 0.0 SW 20 30 11 16 1015.4 1015.6 0.2
19/11:30am 2.2 -4.0 2.1 99 0.0 SW 24 33 13 18 1015.8 - 0.2
19/11:00am 2.6 -3.9 2.5 99 0.0 SSW 26 39 14 21 1015.8 1015.9 0.2
19/10:30am 2.4 -6.3 2.3 99 0.0 SSW 37 50 20 27 1015.2 - 0.2
19/10:00am 2.0 -5.4 1.9 99 0.0 SSW 30 37 16 20 1015.4 1015.6 0.2
19/09:30am 2.2 -4.0 2.1 99 0.0 SSW 24 33 13 18 1015.6 - 0.2
19/09:00am 2.0 -5.0 1.9 99 0.0 SSW 28 37 15 20 1015.4 1015.6 22.4
19/08:30am 1.6 -5.5 1.5 99 0.0 SSW 28 35 15 19 1015.3 - 22.4
19/08:00am 1.4 -6.1 1.3 99 0.0 SSW 30 41 16 22 1015.1 1015.3 22.2
19/07:30am 1.2 -7.3 1.1 99 0.0 SSW 35 44 19 24 1014.7 - 22.2
19/07:00am 1.4 -7.0 1.3 99 0.0 SSW 35 50 19 27 1014.2 1014.3 22.2
19/06:30am 1.3 -7.2 1.2 99 0.0 SSW 35 46 19 25 1014.2 - 21.8
19/06:00am 1.4 -7.4 1.3 99 0.0 SSW 37 46 20 25 1013.9 1014.0 21.6
19/05:30am 1.2 -8.0 1.1 99 0.0 SSW 39 46 21 25 1013.5 - 21.6
19/05:00am 1.4 -7.8 1.3 99 0.0 SSW 39 52 21 28 1013.5 1013.6 21.6
19/04:30am 1.5 -8.6 1.4 99 0.0 SSW 44 56 24 30 1013.5 - 20.8
19/04:10am 1.0 -10.0 0.9 99 0.0 SSW 48 67 26 36 1013.2 - 20.8
19/04:00am 1.2 -9.0 1.1 99 0.0 SSW 44 59 24 32 1013.2 1013.3 20.4
19/03:30am 1.2 -9.4 1.1 99 0.0 SSW 46 61 25 33 1013.2 - 19.4
19/03:20am 1.4 -7.8 1.3 99 0.0 SSW 39 59 21 32 1013.2 - 19.0
19/03:00am 1.4 -8.6 1.3 99 0.0 SSW 43 56 23 30 1013.2 1013.3 18.4
19/02:30am 1.2 -9.7 1.1 99 0.0 SSW 48 57 26 31 1013.3 - 18.2
19/02:00am 1.4 -8.6 1.3 99 0.0 SSW 43 54 23 29 1013.3 1013.4 17.8
19/01:32am 1.8 -8.7 1.7 99 0.0 SSW 46 65 25 35 1013.4 - 17.4
19/01:30am 1.6 -9.3 1.5 99 0.0 SSW 48 65 26 35 1013.4 - 17.4
19/01:07am 1.5 -8.6 1.4 99 0.0 SSW 44 65 24 35 1013.3 - 16.8
19/01:00am 1.8 -8.3 1.7 99 0.0 SSW 44 59 24 32 1013.5 1013.6 16.4
19/12:30am 1.9 -8.0 1.8 99 0.0 SSW 43 56 23 30 1013.4 - 16.2
19/12:00am 1.6 -9.3 1.5 99 0.0 SSW 48 61 26 33 1013.2 1013.3 16.2
 
Date/Time
EST
Temp
°C
App
Temp
°C
Dew
Point
Rel
Hum
%
Delta-T
°C
Wind Press
QNH
hPa
Press
MSL
hPa
Rain
since 9 am
mm
Dir
 
Spd
km/h
Gust
km/h
Spd
kts
Gust
kts
18/11:31pm 1.7 -7.4 1.6 99 0.0 SSW 39 59 21 32 1013.4 - 15.6
18/11:30pm 1.7 -7.4 1.6 99 0.0 SSW 39 52 21 28 1013.5 - 15.6
18/11:03pm 1.9 -8.0 1.8 99 0.0 SSW 43 63 23 34 1013.5 - 15.6
18/11:00pm 1.8 -8.1 1.7 99 0.0 SSW 43 59 23 32 1013.5 1013.6 15.4
18/10:51pm 1.9 -8.0 1.8 99 0.0 SSW 43 61 23 33 1013.7 - 15.4
18/10:30pm 1.9 -8.5 1.8 99 0.0 SW 46 61 25 33 1013.5 - 15.4
18/10:08pm 2.0 -7.1 1.9 99 0.0 SW 39 57 21 31 1013.5 - 14.4
18/10:00pm 2.0 -7.1 1.9 99 0.0 SW 39 52 21 28 1013.8 1013.9 14.4
18/09:30pm 1.7 -8.4 1.6 99 0.0 SSW 44 61 24 33 1013.4 - 14.2
18/09:00pm 1.8 -7.7 1.7 99 0.0 SW 41 59 22 32 1013.5 1013.6 13.6
18/08:30pm 2.0 -7.1 1.9 99 0.0 SSW 39 59 21 32 1013.1 - 13.2
18/08:16pm 2.1 -8.7 2.0 99 0.0 SSW 48 67 26 36 1012.9 - 13.0
18/08:00pm 1.8 -8.7 1.7 99 0.0 SW 46 63 25 34 1012.7 1012.7 13.0
18/07:30pm 2.2 -8.2 2.1 99 0.0 SSW 46 65 25 35 1012.5 - 12.2
18/07:00pm 2.4 -8.0 2.3 99 0.0 SW 46 67 25 36 1012.4 1012.5 11.2
18/06:32pm 2.3 -9.6 2.2 99 0.0 SSW 54 76 29 41 1012.2 - 10.6
18/06:30pm 2.2 -9.3 2.1 99 0.0 SSW 52 67 28 36 1012.2 - 10.6
18/06:02pm 2.2 -7.6 2.1 99 0.0 SW 43 63 23 34 1012.1 - 10.4
18/06:00pm 2.1 -7.4 2.0 99 0.0 SW 41 56 22 30 1012.2 1012.3 10.4
18/05:30pm 2.4 -7.4 2.3 99 0.0 SW 43 61 23 33 1011.8 - 9.2
18/05:00pm 2.8 -6.2 2.7 99 0.0 SW 39 59 21 32 1011.8 1011.8 8.2
18/04:46pm 3.0 -5.9 2.9 99 0.0 SW 39 57 21 31 1011.5 - 7.8
18/04:30pm 3.0 -5.9 2.9 99 0.0 SW 39 54 21 29 1011.3 - 7.6
18/04:08pm 3.4 -5.5 3.3 99 0.0 SW 39 57 21 31 1011.3 - 7.0
18/04:00pm 3.3 -6.9 3.2 99 0.0 SW 46 57 25 31 1011.1 1011.1 7.0
18/03:30pm 3.4 -5.1 3.3 99 0.0 SW 37 52 20 28 1011.1 - 6.0
18/03:20pm 4.3 -3.2 4.2 99 0.0 SW 33 52 18 28 1010.9 - 5.0
18/03:00pm 4.5 -3.4 4.4 99 0.0 SW 35 52 19 28 1010.8 1010.8 4.8
18/02:30pm 3.8 -4.6 3.7 99 0.0 SW 37 59 20 32 1010.3 - 4.8
18/02:05pm 3.5 -4.2 3.4 99 0.0 SSW 33 54 18 29 1010.2 - 4.4
18/02:00pm 3.6 -4.8 3.5 99 0.0 SW 37 54 20 29 1010.2 1010.2 4.4
18/01:36pm 3.5 -5.3 3.4 99 0.0 SW 39 61 21 33 1010.0 - 4.2
18/01:30pm 3.7 -5.5 3.6 99 0.0 SW 41 56 22 30 1010.1 - 4.2
18/01:03pm 3.6 -5.2 3.5 99 0.0 SW 39 57 21 31 1010.0 - 4.2
18/01:00pm 3.9 -5.6 3.8 99 0.0 SW 43 57 23 31 1009.9 1009.9 4.2
18/12:36pm 3.8 -5.0 3.7 99 0.0 SW 39 59 21 32 1010.1 - 4.2
18/12:30pm 4.2 -5.8 4.1 99 0.0 SW 46 59 25 32 1009.9 - 4.2
18/12:00pm 3.7 -5.1 3.6 99 0.0 SW 39 57 21 31 1010.2 1010.2 4.0
18/11:50am 3.9 -3.7 3.8 99 0.0 SW 33 56 18 30 1010.2 - 4.0
18/11:30am 4.1 -5.0 4.0 99 0.0 SSW 41 57 22 31 1010.0 - 3.2
18/11:00am 3.5 -5.0 3.4 99 0.0 SW 37 59 20 32 1009.9 1009.9 3.2
18/10:53am 2.9 -4.0 2.8 99 0.0 SW 28 50 15 27 1010.3 - 3.2
18/10:30am 3.0 -3.1 2.9 99 0.0 SSW 24 32 13 17 1010.1 - 2.2
18/10:00am 2.8 -2.6 2.7 99 0.0 SSW 20 32 11 17 1010.9 1010.9 1.6
18/09:30am 2.9 -4.3 2.8 99 0.0 SW 30 48 16 26 1010.9 - 1.2
18/09:07am 3.4 -6.2 3.3 99 0.0 SW 43 63 23 34 1010.9 - 0.2
18/09:00am 3.9 -4.9 3.8 99 0.0 SW 39 56 21 30 1011.1 1011.1 11.8
18/08:55am 4.0 -4.4 3.9 99 0.0 SW 37 50 20 27 1010.9 - 11.4
18/08:36am 3.7 -8.5 3.6 99 0.0 SW 57 76 31 41 1010.4 - 9.6
18/08:30am 3.7 -9.3 3.6 99 0.0 SW 61 74 33 40 1010.0 - 9.0
18/08:29am 3.9 -8.7 3.8 99 0.0 SW 59 69 32 37 1010.0 - 8.8
18/08:00am 4.7 -6.0 4.6 99 0.0 W 50 83 27 45 1009.1 1009.1 6.6
18/07:56am 4.8 -5.1 4.7 99 0.0 W 46 65 25 35 1009.5 - 6.0
18/07:55am 5.7 -4.0 5.6 99 0.0 W 46 59 25 32 1009.6 - 5.6
18/07:30am 6.6 0.1 6.5 99 0.0 N 30 41 16 22 1009.0 - 2.0
18/07:00am 6.5 -0.6 6.4 99 0.0 N 33 46 18 25 1009.4 1009.4 1.2

Other Formats:

Comma delimited format used in spreadsheet applications
http://www.bom.gov.au/fwo/IDT60801/IDT60801.95952.axf

JavaScript Object Notation format (JSON) in row-major order
http://www.bom.gov.au/fwo/IDT60801/IDT60801.95952.json